sensor_id;sensor_type;location;lat;lon;timestamp;temperature;humidity
16114;DHT22;8161;-33.910;151.156;2023-05-10T00:00:04;18.40;99.90
16114;DHT22;8161;-33.910;151.156;2023-05-10T00:05:02;18.70;99.90
16114;DHT22;8161;-33.910;151.156;2023-05-10T00:07:32;18.40;99.90
16114;DHT22;8161;-33.910;151.156;2023-05-10T00:12:26;19.30;99.90
16114;DHT22;8161;-33.910;151.156;2023-05-10T00:14:54;19.30;99.90
16114;DHT22;8161;-33.910;151.156;2023-05-10T00:17:27;19.50;99.90
16114;DHT22;8161;-33.910;151.156;2023-05-10T00:19:54;19.30;99.90
16114;DHT22;8161;-33.910;151.156;2023-05-10T00:22:22;19.50;99.90
16114;DHT22;8161;-33.910;151.156;2023-05-10T00:24:49;19.50;99.90
16114;DHT22;8161;-33.910;151.156;2023-05-10T00:27:16;19.50;99.90
16114;DHT22;8161;-33.910;151.156;2023-05-10T00:29:44;19.80;99.90
16114;DHT22;8161;-33.910;151.156;2023-05-10T00:32:11;19.70;99.90
16114;DHT22;8161;-33.910;151.156;2023-05-10T00:34:40;20.00;99.90
16114;DHT22;8161;-33.910;151.156;2023-05-10T00:42:01;20.30;99.90
16114;DHT22;8161;-33.910;151.156;2023-05-10T00:44:29;20.30;99.90
16114;DHT22;8161;-33.910;151.156;2023-05-10T00:49:25;20.50;99.90
16114;DHT22;8161;-33.910;151.156;2023-05-10T00:51:52;20.30;99.90
16114;DHT22;8161;-33.910;151.156;2023-05-10T00:54:19;20.40;99.90
16114;DHT22;8161;-33.910;151.156;2023-05-10T00:56:47;20.40;99.90
16114;DHT22;8161;-33.910;151.156;2023-05-10T00:59:16;20.20;99.90
16114;DHT22;8161;-33.910;151.156;2023-05-10T01:01:47;20.60;99.90
16114;DHT22;8161;-33.910;151.156;2023-05-10T01:04:15;20.50;99.90
16114;DHT22;8161;-33.910;151.156;2023-05-10T01:06:43;20.40;99.90
16114;DHT22;8161;-33.910;151.156;2023-05-10T01:09:11;20.50;99.90
16114;DHT22;8161;-33.910;151.156;2023-05-10T01:11:39;20.80;99.90
16114;DHT22;8161;-33.910;151.156;2023-05-10T01:14:06;21.40;99.90
16114;DHT22;8161;-33.910;151.156;2023-05-10T01:36:27;21.10;99.90
16114;DHT22;8161;-33.910;151.156;2023-05-10T01:41:58;20.90;99.90
16114;DHT22;8161;-33.910;151.156;2023-05-10T01:44:44;21.00;99.90
16114;DHT22;8161;-33.910;151.156;2023-05-10T01:49:58;21.10;99.90
16114;DHT22;8161;-33.910;151.156;2023-05-10T01:52:31;21.10;99.90
16114;DHT22;8161;-33.910;151.156;2023-05-10T01:55:02;21.20;99.90
16114;DHT22;8161;-33.910;151.156;2023-05-10T01:57:35;21.40;99.90
16114;DHT22;8161;-33.910;151.156;2023-05-10T02:00:07;21.40;99.90
16114;DHT22;8161;-33.910;151.156;2023-05-10T02:02:44;21.00;99.90
16114;DHT22;8161;-33.910;151.156;2023-05-10T02:05:14;21.20;99.90
16114;DHT22;8161;-33.910;151.156;2023-05-10T02:07:42;20.80;99.90
16114;DHT22;8161;-33.910;151.156;2023-05-10T02:10:11;20.60;99.90
16114;DHT22;8161;-33.910;151.156;2023-05-10T02:12:43;21.10;99.90
16114;DHT22;8161;-33.910;151.156;2023-05-10T02:15:12;21.20;99.90
16114;DHT22;8161;-33.910;151.156;2023-05-10T02:22:38;21.10;99.90
16114;DHT22;8161;-33.910;151.156;2023-05-10T02:25:07;21.60;99.90
16114;DHT22;8161;-33.910;151.156;2023-05-10T02:27:35;21.60;99.90
16114;DHT22;8161;-33.910;151.156;2023-05-10T02:30:04;21.80;99.90
16114;DHT22;8161;-33.910;151.156;2023-05-10T02:35:01;21.60;99.90
16114;DHT22;8161;-33.910;151.156;2023-05-10T02:39:56;21.70;99.90
16114;DHT22;8161;-33.910;151.156;2023-05-10T02:42:28;22.40;99.90
16114;DHT22;8161;-33.910;151.156;2023-05-10T02:45:00;21.70;99.90
16114;DHT22;8161;-33.910;151.156;2023-05-10T02:47:31;21.50;99.90
16114;DHT22;8161;-33.910;151.156;2023-05-10T02:49:58;21.50;99.90
16114;DHT22;8161;-33.910;151.156;2023-05-10T02:52:30;21.70;99.90
16114;DHT22;8161;-33.910;151.156;2023-05-10T02:57:33;22.10;99.90
16114;DHT22;8161;-33.910;151.156;2023-05-10T03:00:01;21.80;99.90
16114;DHT22;8161;-33.910;151.156;2023-05-10T03:02:29;21.90;99.90
16114;DHT22;8161;-33.910;151.156;2023-05-10T03:04:57;21.90;99.90
16114;DHT22;8161;-33.910;151.156;2023-05-10T03:09:53;21.70;99.90
16114;DHT22;8161;-33.910;151.156;2023-05-10T03:20:29;21.80;99.90
16114;DHT22;8161;-33.910;151.156;2023-05-10T03:23:27;21.80;99.90
16114;DHT22;8161;-33.910;151.156;2023-05-10T03:25:52;22.30;99.90
16114;DHT22;8161;-33.910;151.156;2023-05-10T03:28:21;21.70;99.90
16114;DHT22;8161;-33.910;151.156;2023-05-10T03:33:20;22.00;99.90
16114;DHT22;8161;-33.910;151.156;2023-05-10T03:45:37;21.70;99.90
16114;DHT22;8161;-33.910;151.156;2023-05-10T03:52:58;22.10;99.90
16114;DHT22;8161;-33.910;151.156;2023-05-10T04:05:15;21.90;99.90
16114;DHT22;8161;-33.910;151.156;2023-05-10T04:10:11;22.00;99.90
16114;DHT22;8161;-33.910;151.156;2023-05-10T04:15:06;22.60;99.90
16114;DHT22;8161;-33.910;151.156;2023-05-10T04:17:33;22.00;99.90
16114;DHT22;8161;-33.910;151.156;2023-05-10T04:20:03;21.80;99.90
16114;DHT22;8161;-33.910;151.156;2023-05-10T04:22:32;22.00;99.90
16114;DHT22;8161;-33.910;151.156;2023-05-10T04:27:27;22.00;99.90
16114;DHT22;8161;-33.910;151.156;2023-05-10T04:29:54;21.60;99.90
16114;DHT22;8161;-33.910;151.156;2023-05-10T04:37:17;21.90;99.90
16114;DHT22;8161;-33.910;151.156;2023-05-10T04:54:30;21.80;99.90
16114;DHT22;8161;-33.910;151.156;2023-05-10T04:59:24;22.00;99.90
16114;DHT22;8161;-33.910;151.156;2023-05-10T05:06:46;21.40;99.90
16114;DHT22;8161;-33.910;151.156;2023-05-10T05:11:40;21.50;99.90
16114;DHT22;8161;-33.910;151.156;2023-05-10T05:14:07;21.90;99.90
16114;DHT22;8161;-33.910;151.156;2023-05-10T05:19:02;21.90;99.90
16114;DHT22;8161;-33.910;151.156;2023-05-10T05:21:29;21.90;99.90
16114;DHT22;8161;-33.910;151.156;2023-05-10T05:23:58;22.10;99.90
16114;DHT22;8161;-33.910;151.156;2023-05-10T05:28:53;21.40;99.90
16114;DHT22;8161;-33.910;151.156;2023-05-10T05:31:21;21.50;99.90
16114;DHT22;8161;-33.910;151.156;2023-05-10T05:46:04;21.70;99.90
16114;DHT22;8161;-33.910;151.156;2023-05-10T05:48:31;21.70;99.90
16114;DHT22;8161;-33.910;151.156;2023-05-10T05:58:25;21.20;99.90
16114;DHT22;8161;-33.910;151.156;2023-05-10T06:03:20;20.90;99.90
16114;DHT22;8161;-33.910;151.156;2023-05-10T06:05:47;21.00;99.90
16114;DHT22;8161;-33.910;151.156;2023-05-10T06:08:15;20.40;99.90
16114;DHT22;8161;-33.910;151.156;2023-05-10T06:10:42;20.20;99.90
16114;DHT22;8161;-33.910;151.156;2023-05-10T06:15:38;20.30;99.90
16114;DHT22;8161;-33.910;151.156;2023-05-10T06:20:32;19.90;99.90
16114;DHT22;8161;-33.910;151.156;2023-05-10T06:23:00;19.60;99.90
16114;DHT22;8161;-33.910;151.156;2023-05-10T06:27:54;19.30;99.90
16114;DHT22;8161;-33.910;151.156;2023-05-10T06:30:25;19.20;99.90
16114;DHT22;8161;-33.910;151.156;2023-05-10T06:32:54;19.20;99.90
16114;DHT22;8161;-33.910;151.156;2023-05-10T06:37:49;19.70;99.90
16114;DHT22;8161;-33.910;151.156;2023-05-10T06:40:18;19.40;99.90
16114;DHT22;8161;-33.910;151.156;2023-05-10T06:42:46;19.20;99.90
16114;DHT22;8161;-33.910;151.156;2023-05-10T06:47:41;19.40;99.90
16114;DHT22;8161;-33.910;151.156;2023-05-10T06:50:09;19.30;99.90
16114;DHT22;8161;-33.910;151.156;2023-05-10T06:52:40;18.90;99.90
16114;DHT22;8161;-33.910;151.156;2023-05-10T06:55:07;19.50;99.90
16114;DHT22;8161;-33.910;151.156;2023-05-10T06:57:35;18.90;99.90
16114;DHT22;8161;-33.910;151.156;2023-05-10T07:00:03;19.30;99.90
16114;DHT22;8161;-33.910;151.156;2023-05-10T07:02:31;19.00;99.90
16114;DHT22;8161;-33.910;151.156;2023-05-10T07:04:58;18.70;99.90
16114;DHT22;8161;-33.910;151.156;2023-05-10T07:07:25;18.70;99.90
16114;DHT22;8161;-33.910;151.156;2023-05-10T07:09:53;18.40;99.90
16114;DHT22;8161;-33.910;151.156;2023-05-10T07:12:20;18.30;99.90
16114;DHT22;8161;-33.910;151.156;2023-05-10T07:14:47;18.80;99.90
16114;DHT22;8161;-33.910;151.156;2023-05-10T07:17:14;18.80;99.90
16114;DHT22;8161;-33.910;151.156;2023-05-10T07:22:09;18.30;99.90
16114;DHT22;8161;-33.910;151.156;2023-05-10T07:27:04;18.60;99.90
16114;DHT22;8161;-33.910;151.156;2023-05-10T07:29:31;18.60;99.90
16114;DHT22;8161;-33.910;151.156;2023-05-10T07:31:58;18.20;99.90
16114;DHT22;8161;-33.910;151.156;2023-05-10T07:34:26;18.50;99.90
16114;DHT22;8161;-33.910;151.156;2023-05-10T07:36:54;18.50;99.90
16114;DHT22;8161;-33.910;151.156;2023-05-10T07:41:48;17.90;99.90
16114;DHT22;8161;-33.910;151.156;2023-05-10T07:44:16;18.50;99.90
16114;DHT22;8161;-33.910;151.156;2023-05-10T07:46:47;17.90;99.90
16114;DHT22;8161;-33.910;151.156;2023-05-10T07:49:17;17.90;99.90
16114;DHT22;8161;-33.910;151.156;2023-05-10T07:51:47;18.20;99.90
16114;DHT22;8161;-33.910;151.156;2023-05-10T07:54:15;18.00;99.90
16114;DHT22;8161;-33.910;151.156;2023-05-10T08:04:12;18.00;99.90
16114;DHT22;8161;-33.910;151.156;2023-05-10T08:06:40;18.20;99.90
16114;DHT22;8161;-33.910;151.156;2023-05-10T08:11:35;18.00;99.90
16114;DHT22;8161;-33.910;151.156;2023-05-10T08:16:29;18.30;99.90
16114;DHT22;8161;-33.910;151.156;2023-05-10T08:18:56;18.00;99.90
16114;DHT22;8161;-33.910;151.156;2023-05-10T08:21:24;17.40;99.90
16114;DHT22;8161;-33.910;151.156;2023-05-10T08:23:52;17.60;99.90
16114;DHT22;8161;-33.910;151.156;2023-05-10T08:26:20;17.80;99.90
16114;DHT22;8161;-33.910;151.156;2023-05-10T08:28:48;18.20;99.90
16114;DHT22;8161;-33.910;151.156;2023-05-10T08:31:15;17.70;99.90
16114;DHT22;8161;-33.910;151.156;2023-05-10T08:36:12;17.50;99.90
16114;DHT22;8161;-33.910;151.156;2023-05-10T08:38:45;17.70;99.90
16114;DHT22;8161;-33.910;151.156;2023-05-10T08:41:13;18.00;99.90
16114;DHT22;8161;-33.910;151.156;2023-05-10T08:43:41;17.60;99.90
16114;DHT22;8161;-33.910;151.156;2023-05-10T08:46:16;17.70;99.90
16114;DHT22;8161;-33.910;151.156;2023-05-10T08:48:48;17.10;99.90
16114;DHT22;8161;-33.910;151.156;2023-05-10T08:51:22;17.50;99.90
16114;DHT22;8161;-33.910;151.156;2023-05-10T08:53:51;17.60;99.90
16114;DHT22;8161;-33.910;151.156;2023-05-10T08:56:19;17.20;99.90
16114;DHT22;8161;-33.910;151.156;2023-05-10T08:58:47;17.40;99.90
16114;DHT22;8161;-33.910;151.156;2023-05-10T09:01:17;17.20;99.90
16114;DHT22;8161;-33.910;151.156;2023-05-10T09:06:14;17.40;99.90
16114;DHT22;8161;-33.910;151.156;2023-05-10T09:08:45;17.70;99.90
16114;DHT22;8161;-33.910;151.156;2023-05-10T09:11:13;17.20;99.90
16114;DHT22;8161;-33.910;151.156;2023-05-10T09:13:40;17.60;99.90
16114;DHT22;8161;-33.910;151.156;2023-05-10T09:16:08;17.30;99.90
16114;DHT22;8161;-33.910;151.156;2023-05-10T09:18:36;16.80;99.90
16114;DHT22;8161;-33.910;151.156;2023-05-10T09:21:03;17.60;99.90
16114;DHT22;8161;-33.910;151.156;2023-05-10T09:26:05;17.60;99.90
16114;DHT22;8161;-33.910;151.156;2023-05-10T09:28:34;16.80;99.90
16114;DHT22;8161;-33.910;151.156;2023-05-10T09:33:28;16.80;99.90
16114;DHT22;8161;-33.910;151.156;2023-05-10T09:43:21;17.40;99.90
16114;DHT22;8161;-33.910;151.156;2023-05-10T09:45:49;17.10;99.90
16114;DHT22;8161;-33.910;151.156;2023-05-10T09:50:44;17.30;99.90
16114;DHT22;8161;-33.910;151.156;2023-05-10T09:53:15;16.90;99.90
16114;DHT22;8161;-33.910;151.156;2023-05-10T09:55:45;17.00;99.90
16114;DHT22;8161;-33.910;151.156;2023-05-10T09:58:14;16.90;99.90
16114;DHT22;8161;-33.910;151.156;2023-05-10T10:00:42;16.40;99.90
16114;DHT22;8161;-33.910;151.156;2023-05-10T10:03:15;16.60;99.90
16114;DHT22;8161;-33.910;151.156;2023-05-10T10:08:11;16.70;99.90
16114;DHT22;8161;-33.910;151.156;2023-05-10T10:10:39;16.30;99.90
16114;DHT22;8161;-33.910;151.156;2023-05-10T10:13:13;16.30;99.90
16114;DHT22;8161;-33.910;151.156;2023-05-10T10:15:43;16.70;99.90
16114;DHT22;8161;-33.910;151.156;2023-05-10T10:18:15;16.50;99.90
16114;DHT22;8161;-33.910;151.156;2023-05-10T10:20:43;16.60;99.90
16114;DHT22;8161;-33.910;151.156;2023-05-10T10:25:38;16.10;99.90
16114;DHT22;8161;-33.910;151.156;2023-05-10T10:28:19;16.50;99.90
16114;DHT22;8161;-33.910;151.156;2023-05-10T10:30:50;16.50;99.90
16114;DHT22;8161;-33.910;151.156;2023-05-10T10:33:30;16.00;99.90
16114;DHT22;8161;-33.910;151.156;2023-05-10T10:36:02;16.00;99.90
16114;DHT22;8161;-33.910;151.156;2023-05-10T10:38:38;16.50;99.90
16114;DHT22;8161;-33.910;151.156;2023-05-10T10:49:28;16.30;99.90
16114;DHT22;8161;-33.910;151.156;2023-05-10T10:54:51;16.00;99.90
16114;DHT22;8161;-33.910;151.156;2023-05-10T10:57:19;15.60;99.90
16114;DHT22;8161;-33.910;151.156;2023-05-10T10:59:48;16.20;99.90
16114;DHT22;8161;-33.910;151.156;2023-05-10T11:02:32;15.80;99.90
16114;DHT22;8161;-33.910;151.156;2023-05-10T11:05:22;15.90;99.90
16114;DHT22;8161;-33.910;151.156;2023-05-10T11:07:58;15.50;99.90
16114;DHT22;8161;-33.910;151.156;2023-05-10T11:10:27;15.70;99.90
16114;DHT22;8161;-33.910;151.156;2023-05-10T11:13:02;16.10;99.90
16114;DHT22;8161;-33.910;151.156;2023-05-10T11:15:40;15.80;99.90
16114;DHT22;8161;-33.910;151.156;2023-05-10T11:18:18;15.40;99.90
16114;DHT22;8161;-33.910;151.156;2023-05-10T11:21:00;15.40;99.90
16114;DHT22;8161;-33.910;151.156;2023-05-10T11:23:54;15.90;99.90
16114;DHT22;8161;-33.910;151.156;2023-05-10T11:26:32;15.70;99.90
16114;DHT22;8161;-33.910;151.156;2023-05-10T11:31:28;15.80;99.90
16114;DHT22;8161;-33.910;151.156;2023-05-10T11:33:57;15.20;99.90
16114;DHT22;8161;-33.910;151.156;2023-05-10T11:36:27;15.50;99.90
16114;DHT22;8161;-33.910;151.156;2023-05-10T11:38:56;15.40;99.90
16114;DHT22;8161;-33.910;151.156;2023-05-10T11:41:24;15.40;99.90
16114;DHT22;8161;-33.910;151.156;2023-05-10T11:43:53;15.40;99.90
16114;DHT22;8161;-33.910;151.156;2023-05-10T11:46:25;14.90;99.90
16114;DHT22;8161;-33.910;151.156;2023-05-10T11:49:01;15.50;99.90
16114;DHT22;8161;-33.910;151.156;2023-05-10T11:51:34;15.00;99.90
16114;DHT22;8161;-33.910;151.156;2023-05-10T11:54:10;14.90;99.90
16114;DHT22;8161;-33.910;151.156;2023-05-10T11:56:38;14.80;99.90
16114;DHT22;8161;-33.910;151.156;2023-05-10T11:59:06;15.30;99.90
16114;DHT22;8161;-33.910;151.156;2023-05-10T12:01:34;15.50;99.90
16114;DHT22;8161;-33.910;151.156;2023-05-10T12:09:06;15.00;99.90
16114;DHT22;8161;-33.910;151.156;2023-05-10T12:11:38;15.30;99.90
16114;DHT22;8161;-33.910;151.156;2023-05-10T12:14:08;14.70;99.90
16114;DHT22;8161;-33.910;151.156;2023-05-10T12:16:36;14.70;99.90
16114;DHT22;8161;-33.910;151.156;2023-05-10T12:19:03;15.40;99.90
16114;DHT22;8161;-33.910;151.156;2023-05-10T12:21:32;14.90;99.90
16114;DHT22;8161;-33.910;151.156;2023-05-10T12:24:02;14.80;99.90
16114;DHT22;8161;-33.910;151.156;2023-05-10T12:29:17;14.40;99.90
16114;DHT22;8161;-33.910;151.156;2023-05-10T12:31:59;15.20;99.90
16114;DHT22;8161;-33.910;151.156;2023-05-10T12:36:54;15.20;99.90
16114;DHT22;8161;-33.910;151.156;2023-05-10T12:41:49;14.50;99.90
16114;DHT22;8161;-33.910;151.156;2023-05-10T12:44:16;14.50;99.90
16114;DHT22;8161;-33.910;151.156;2023-05-10T12:46:43;14.60;99.90
16114;DHT22;8161;-33.910;151.156;2023-05-10T12:49:11;14.90;99.90
16114;DHT22;8161;-33.910;151.156;2023-05-10T12:54:05;14.90;99.90
16114;DHT22;8161;-33.910;151.156;2023-05-10T12:56:33;14.60;99.90
16114;DHT22;8161;-33.910;151.156;2023-05-10T12:59:00;14.40;99.90
16114;DHT22;8161;-33.910;151.156;2023-05-10T13:01:27;14.50;99.90
16114;DHT22;8161;-33.910;151.156;2023-05-10T13:03:55;15.10;99.90
16114;DHT22;8161;-33.910;151.156;2023-05-10T13:06:22;14.90;99.90
16114;DHT22;8161;-33.910;151.156;2023-05-10T13:08:49;14.50;99.90
16114;DHT22;8161;-33.910;151.156;2023-05-10T13:13:47;14.30;99.90
16114;DHT22;8161;-33.910;151.156;2023-05-10T13:18:42;14.90;99.90
16114;DHT22;8161;-33.910;151.156;2023-05-10T13:21:09;14.90;99.90
16114;DHT22;8161;-33.910;151.156;2023-05-10T13:23:37;14.90;99.90
16114;DHT22;8161;-33.910;151.156;2023-05-10T13:26:04;14.80;99.90
16114;DHT22;8161;-33.910;151.156;2023-05-10T13:30:59;14.40;99.90
16114;DHT22;8161;-33.910;151.156;2023-05-10T13:33:26;14.90;99.90
16114;DHT22;8161;-33.910;151.156;2023-05-10T13:35:53;14.70;99.90
16114;DHT22;8161;-33.910;151.156;2023-05-10T13:38:21;14.00;99.90
16114;DHT22;8161;-33.910;151.156;2023-05-10T13:43:19;14.30;99.90
16114;DHT22;8161;-33.910;151.156;2023-05-10T13:45:46;14.10;99.90
16114;DHT22;8161;-33.910;151.156;2023-05-10T13:50:41;14.60;99.90
16114;DHT22;8161;-33.910;151.156;2023-05-10T13:55:35;14.70;99.90
16114;DHT22;8161;-33.910;151.156;2023-05-10T13:58:03;14.60;99.90
16114;DHT22;8161;-33.910;151.156;2023-05-10T14:02:57;14.40;99.90
16114;DHT22;8161;-33.910;151.156;2023-05-10T14:05:24;14.40;99.90
16114;DHT22;8161;-33.910;151.156;2023-05-10T14:07:52;14.30;99.90
16114;DHT22;8161;-33.910;151.156;2023-05-10T14:10:20;14.40;99.90
16114;DHT22;8161;-33.910;151.156;2023-05-10T14:15:14;14.10;99.90
16114;DHT22;8161;-33.910;151.156;2023-05-10T14:17:41;14.10;99.90
16114;DHT22;8161;-33.910;151.156;2023-05-10T14:20:09;14.30;99.90
16114;DHT22;8161;-33.910;151.156;2023-05-10T14:25:04;14.00;99.90
16114;DHT22;8161;-33.910;151.156;2023-05-10T14:27:32;13.70;99.90
16114;DHT22;8161;-33.910;151.156;2023-05-10T14:29:59;13.80;99.90
16114;DHT22;8161;-33.910;151.156;2023-05-10T14:32:26;14.20;99.90
16114;DHT22;8161;-33.910;151.156;2023-05-10T14:39:49;14.40;99.90
16114;DHT22;8161;-33.910;151.156;2023-05-10T14:42:16;14.50;99.90
16114;DHT22;8161;-33.910;151.156;2023-05-10T14:44:43;14.20;99.90
16114;DHT22;8161;-33.910;151.156;2023-05-10T14:52:04;13.60;99.90
16114;DHT22;8161;-33.910;151.156;2023-05-10T14:54:32;13.70;99.90
16114;DHT22;8161;-33.910;151.156;2023-05-10T14:57:01;13.90;99.90
16114;DHT22;8161;-33.910;151.156;2023-05-10T14:59:29;13.50;99.90
16114;DHT22;8161;-33.910;151.156;2023-05-10T15:01:56;13.90;99.90
16114;DHT22;8161;-33.910;151.156;2023-05-10T15:04:23;13.60;99.90
16114;DHT22;8161;-33.910;151.156;2023-05-10T15:09:18;13.70;99.90
16114;DHT22;8161;-33.910;151.156;2023-05-10T15:11:48;13.90;99.90
16114;DHT22;8161;-33.910;151.156;2023-05-10T15:19:17;14.00;99.90
16114;DHT22;8161;-33.910;151.156;2023-05-10T15:21:44;13.90;99.90
16114;DHT22;8161;-33.910;151.156;2023-05-10T15:24:11;13.40;99.90
16114;DHT22;8161;-33.910;151.156;2023-05-10T15:26:39;13.60;99.90
16114;DHT22;8161;-33.910;151.156;2023-05-10T15:29:06;13.70;99.90
16114;DHT22;8161;-33.910;151.156;2023-05-10T15:31:34;13.30;99.90
16114;DHT22;8161;-33.910;151.156;2023-05-10T15:36:29;13.40;99.90
16114;DHT22;8161;-33.910;151.156;2023-05-10T15:38:56;13.90;99.90
16114;DHT22;8161;-33.910;151.156;2023-05-10T15:41:23;13.80;99.90
16114;DHT22;8161;-33.910;151.156;2023-05-10T15:46:18;13.50;99.90
16114;DHT22;8161;-33.910;151.156;2023-05-10T15:48:45;13.70;99.90
16114;DHT22;8161;-33.910;151.156;2023-05-10T15:51:13;14.00;99.90
16114;DHT22;8161;-33.910;151.156;2023-05-10T15:56:08;13.90;99.90
16114;DHT22;8161;-33.910;151.156;2023-05-10T16:01:03;13.70;99.90
16114;DHT22;8161;-33.910;151.156;2023-05-10T16:03:34;14.00;99.90
16114;DHT22;8161;-33.910;151.156;2023-05-10T16:06:01;13.40;99.90
16114;DHT22;8161;-33.910;151.156;2023-05-10T16:08:28;14.20;99.90
16114;DHT22;8161;-33.910;151.156;2023-05-10T16:10:56;14.10;99.90
16114;DHT22;8161;-33.910;151.156;2023-05-10T16:13:24;14.00;99.90
16114;DHT22;8161;-33.910;151.156;2023-05-10T16:15:51;14.00;99.90
16114;DHT22;8161;-33.910;151.156;2023-05-10T16:20:46;14.00;99.90
16114;DHT22;8161;-33.910;151.156;2023-05-10T16:25:41;13.40;99.90
16114;DHT22;8161;-33.910;151.156;2023-05-10T16:28:08;13.40;99.90
16114;DHT22;8161;-33.910;151.156;2023-05-10T16:33:03;13.60;99.90
16114;DHT22;8161;-33.910;151.156;2023-05-10T16:35:30;13.40;99.90
16114;DHT22;8161;-33.910;151.156;2023-05-10T16:37:57;14.20;99.90
16114;DHT22;8161;-33.910;151.156;2023-05-10T16:40:25;13.70;99.90
16114;DHT22;8161;-33.910;151.156;2023-05-10T16:42:52;14.10;99.90
16114;DHT22;8161;-33.910;151.156;2023-05-10T16:45:19;14.00;99.90
16114;DHT22;8161;-33.910;151.156;2023-05-10T16:47:46;13.50;99.90
16114;DHT22;8161;-33.910;151.156;2023-05-10T16:52:41;14.10;99.90
16114;DHT22;8161;-33.910;151.156;2023-05-10T16:55:08;14.20;99.90
16114;DHT22;8161;-33.910;151.156;2023-05-10T16:57:36;13.40;99.90
16114;DHT22;8161;-33.910;151.156;2023-05-10T17:00:03;14.00;99.90
16114;DHT22;8161;-33.910;151.156;2023-05-10T17:07:28;13.60;99.90
16114;DHT22;8161;-33.910;151.156;2023-05-10T17:09:56;13.80;99.90
16114;DHT22;8161;-33.910;151.156;2023-05-10T17:14:51;13.70;99.90
16114;DHT22;8161;-33.910;151.156;2023-05-10T17:17:19;13.40;99.90
16114;DHT22;8161;-33.910;151.156;2023-05-10T17:22:16;14.00;99.90
16114;DHT22;8161;-33.910;151.156;2023-05-10T17:27:12;13.60;99.90
16114;DHT22;8161;-33.910;151.156;2023-05-10T17:39:31;13.70;99.90
16114;DHT22;8161;-33.910;151.156;2023-05-10T17:41:58;14.00;99.90
16114;DHT22;8161;-33.910;151.156;2023-05-10T17:44:26;13.60;99.90
16114;DHT22;8161;-33.910;151.156;2023-05-10T17:49:20;14.10;99.90
16114;DHT22;8161;-33.910;151.156;2023-05-10T17:54:15;13.90;99.90
16114;DHT22;8161;-33.910;151.156;2023-05-10T17:56:42;13.80;99.90
16114;DHT22;8161;-33.910;151.156;2023-05-10T17:59:09;13.90;99.90
16114;DHT22;8161;-33.910;151.156;2023-05-10T18:06:35;13.90;99.90
16114;DHT22;8161;-33.910;151.156;2023-05-10T18:09:03;13.40;99.90
16114;DHT22;8161;-33.910;151.156;2023-05-10T18:11:34;13.60;99.90
16114;DHT22;8161;-33.910;151.156;2023-05-10T18:14:02;13.50;99.90
16114;DHT22;8161;-33.910;151.156;2023-05-10T18:18:57;13.70;99.90
16114;DHT22;8161;-33.910;151.156;2023-05-10T18:21:24;14.00;99.90
16114;DHT22;8161;-33.910;151.156;2023-05-10T18:23:51;13.30;99.90
16114;DHT22;8161;-33.910;151.156;2023-05-10T18:28:46;13.70;99.90
16114;DHT22;8161;-33.910;151.156;2023-05-10T18:31:13;14.10;99.90
16114;DHT22;8161;-33.910;151.156;2023-05-10T18:33:41;13.90;99.90
16114;DHT22;8161;-33.910;151.156;2023-05-10T18:36:08;14.10;99.90
16114;DHT22;8161;-33.910;151.156;2023-05-10T18:41:04;13.70;99.90
16114;DHT22;8161;-33.910;151.156;2023-05-10T18:43:32;13.40;99.90
16114;DHT22;8161;-33.910;151.156;2023-05-10T18:45:59;14.00;99.90
16114;DHT22;8161;-33.910;151.156;2023-05-10T18:48:27;14.10;99.90
16114;DHT22;8161;-33.910;151.156;2023-05-10T18:50:54;13.60;99.90
16114;DHT22;8161;-33.910;151.156;2023-05-10T18:53:21;13.60;99.90
16114;DHT22;8161;-33.910;151.156;2023-05-10T18:55:55;13.40;99.90
16114;DHT22;8161;-33.910;151.156;2023-05-10T18:58:27;13.50;99.90
16114;DHT22;8161;-33.910;151.156;2023-05-10T19:00:55;13.40;99.90
16114;DHT22;8161;-33.910;151.156;2023-05-10T19:03:24;13.70;99.90
16114;DHT22;8161;-33.910;151.156;2023-05-10T19:05:51;13.70;99.90
16114;DHT22;8161;-33.910;151.156;2023-05-10T19:08:18;13.20;99.90
16114;DHT22;8161;-33.910;151.156;2023-05-10T19:10:46;13.10;99.90
16114;DHT22;8161;-33.910;151.156;2023-05-10T19:13:16;13.10;99.90
16114;DHT22;8161;-33.910;151.156;2023-05-10T19:15:46;13.60;99.90
16114;DHT22;8161;-33.910;151.156;2023-05-10T19:18:13;13.40;99.90
16114;DHT22;8161;-33.910;151.156;2023-05-10T19:20:41;13.40;99.90
16114;DHT22;8161;-33.910;151.156;2023-05-10T19:23:08;12.90;99.90
16114;DHT22;8161;-33.910;151.156;2023-05-10T19:25:36;13.30;99.90
16114;DHT22;8161;-33.910;151.156;2023-05-10T19:28:04;13.50;99.90
16114;DHT22;8161;-33.910;151.156;2023-05-10T19:30:32;12.80;99.90
16114;DHT22;8161;-33.910;151.156;2023-05-10T19:32:59;13.20;99.90
16114;DHT22;8161;-33.910;151.156;2023-05-10T19:35:29;12.60;99.90
16114;DHT22;8161;-33.910;151.156;2023-05-10T19:42:50;12.90;99.90
16114;DHT22;8161;-33.910;151.156;2023-05-10T19:45:18;13.20;99.90
16114;DHT22;8161;-33.910;151.156;2023-05-10T19:52:44;12.60;99.90
16114;DHT22;8161;-33.910;151.156;2023-05-10T19:55:26;12.90;99.90
16114;DHT22;8161;-33.910;151.156;2023-05-10T19:57:57;12.80;99.90
16114;DHT22;8161;-33.910;151.156;2023-05-10T20:00:27;12.90;99.90
16114;DHT22;8161;-33.910;151.156;2023-05-10T20:02:55;12.70;99.90
16114;DHT22;8161;-33.910;151.156;2023-05-10T20:07:49;13.10;99.90
16114;DHT22;8161;-33.910;151.156;2023-05-10T20:10:17;13.20;99.90
16114;DHT22;8161;-33.910;151.156;2023-05-10T20:12:48;13.10;99.90
16114;DHT22;8161;-33.910;151.156;2023-05-10T20:15:17;12.70;99.90
16114;DHT22;8161;-33.910;151.156;2023-05-10T20:17:46;12.80;99.90
16114;DHT22;8161;-33.910;151.156;2023-05-10T20:20:14;13.10;99.90
16114;DHT22;8161;-33.910;151.156;2023-05-10T20:22:45;13.40;99.90
16114;DHT22;8161;-33.910;151.156;2023-05-10T20:25:13;13.00;99.90
16114;DHT22;8161;-33.910;151.156;2023-05-10T20:27:43;13.50;99.90
16114;DHT22;8161;-33.910;151.156;2023-05-10T20:32:38;13.20;99.90
16114;DHT22;8161;-33.910;151.156;2023-05-10T20:35:06;12.70;99.90
16114;DHT22;8161;-33.910;151.156;2023-05-10T20:37:33;13.20;99.90
16114;DHT22;8161;-33.910;151.156;2023-05-10T20:40:00;13.40;99.90
16114;DHT22;8161;-33.910;151.156;2023-05-10T20:42:28;13.20;99.90
16114;DHT22;8161;-33.910;151.156;2023-05-10T20:44:55;13.30;99.90
16114;DHT22;8161;-33.910;151.156;2023-05-10T20:49:52;12.90;99.90
16114;DHT22;8161;-33.910;151.156;2023-05-10T20:52:20;13.50;99.90
16114;DHT22;8161;-33.910;151.156;2023-05-10T20:54:47;12.90;99.90
16114;DHT22;8161;-33.910;151.156;2023-05-10T20:57:14;13.00;99.90
16114;DHT22;8161;-33.910;151.156;2023-05-10T20:59:41;12.60;99.90
16114;DHT22;8161;-33.910;151.156;2023-05-10T21:02:09;13.10;99.90
16114;DHT22;8161;-33.910;151.156;2023-05-10T21:04:36;12.90;99.90